sensor_id;sensor_type;location;lat;lon;timestamp;P1;durP1;ratioP1;P2;durP2;ratioP2
53044;SDS011;38930;52.766;6.884;2023-04-03T00:01:24;4.43;;;2.22;;
53044;SDS011;38930;52.766;6.884;2023-04-03T00:03:50;2.83;;;1.88;;
53044;SDS011;38930;52.766;6.884;2023-04-03T00:06:16;4.55;;;2.00;;
53044;SDS011;38930;52.766;6.884;2023-04-03T00:08:42;2.85;;;1.80;;
53044;SDS011;38930;52.766;6.884;2023-04-03T00:11:08;3.10;;;1.80;;
53044;SDS011;38930;52.766;6.884;2023-04-03T00:13:34;2.95;;;1.80;;
53044;SDS011;38930;52.766;6.884;2023-04-03T00:16:00;3.70;;;2.03;;
53044;SDS011;38930;52.766;6.884;2023-04-03T00:18:26;5.87;;;2.00;;
53044;SDS011;38930;52.766;6.884;2023-04-03T00:20:52;6.63;;;2.03;;
53044;SDS011;38930;52.766;6.884;2023-04-03T00:23:18;2.75;;;1.73;;
53044;SDS011;38930;52.766;6.884;2023-04-03T00:25:43;2.42;;;1.80;;
53044;SDS011;38930;52.766;6.884;2023-04-03T00:28:09;8.48;;;1.90;;
53044;SDS011;38930;52.766;6.884;2023-04-03T00:30:35;5.57;;;2.20;;
53044;SDS011;38930;52.766;6.884;2023-04-03T00:33:01;2.42;;;1.60;;
53044;SDS011;38930;52.766;6.884;2023-04-03T00:35:27;5.22;;;2.15;;
53044;SDS011;38930;52.766;6.884;2023-04-03T00:37:53;2.92;;;2.03;;
53044;SDS011;38930;52.766;6.884;2023-04-03T00:40:20;5.25;;;2.50;;
53044;SDS011;38930;52.766;6.884;2023-04-03T00:42:48;4.40;;;2.10;;
53044;SDS011;38930;52.766;6.884;2023-04-03T00:47:48;4.07;;;2.22;;
53044;SDS011;38930;52.766;6.884;2023-04-03T00:50:13;4.78;;;2.15;;
53044;SDS011;38930;52.766;6.884;2023-04-03T00:52:39;4.70;;;2.42;;
53044;SDS011;38930;52.766;6.884;2023-04-03T00:55:05;5.25;;;2.17;;
53044;SDS011;38930;52.766;6.884;2023-04-03T00:57:33;4.68;;;2.88;;
53044;SDS011;38930;52.766;6.884;2023-04-03T01:00:10;3.47;;;2.10;;
53044;SDS011;38930;52.766;6.884;2023-04-03T01:02:38;8.30;;;2.50;;
53044;SDS011;38930;52.766;6.884;2023-04-03T01:05:06;5.47;;;2.38;;
53044;SDS011;38930;52.766;6.884;2023-04-03T01:07:32;4.80;;;2.53;;
53044;SDS011;38930;52.766;6.884;2023-04-03T01:10:02;5.68;;;3.20;;
53044;SDS011;38930;52.766;6.884;2023-04-03T01:12:32;5.90;;;2.92;;
53044;SDS011;38930;52.766;6.884;2023-04-03T01:15:01;6.60;;;2.95;;
53044;SDS011;38930;52.766;6.884;2023-04-03T01:17:33;4.75;;;2.72;;
53044;SDS011;38930;52.766;6.884;2023-04-03T01:25:31;5.43;;;2.53;;
53044;SDS011;38930;52.766;6.884;2023-04-03T01:27:57;6.30;;;3.20;;
53044;SDS011;38930;52.766;6.884;2023-04-03T01:30:24;9.88;;;3.50;;
53044;SDS011;38930;52.766;6.884;2023-04-03T01:32:55;8.80;;;2.78;;
53044;SDS011;38930;52.766;6.884;2023-04-03T01:35:21;8.00;;;2.92;;
53044;SDS011;38930;52.766;6.884;2023-04-03T01:37:47;5.95;;;3.00;;
53044;SDS011;38930;52.766;6.884;2023-04-03T01:40:12;5.15;;;2.42;;
53044;SDS011;38930;52.766;6.884;2023-04-03T01:42:38;6.63;;;2.58;;
53044;SDS011;38930;52.766;6.884;2023-04-03T01:45:03;5.40;;;2.75;;
53044;SDS011;38930;52.766;6.884;2023-04-03T01:47:30;4.38;;;2.45;;
53044;SDS011;38930;52.766;6.884;2023-04-03T01:49:55;4.97;;;2.30;;
53044;SDS011;38930;52.766;6.884;2023-04-03T01:52:21;8.02;;;2.47;;
53044;SDS011;38930;52.766;6.884;2023-04-03T01:54:46;3.75;;;2.70;;
53044;SDS011;38930;52.766;6.884;2023-04-03T01:57:12;7.55;;;2.85;;
53044;SDS011;38930;52.766;6.884;2023-04-03T01:59:40;4.65;;;2.38;;
53044;SDS011;38930;52.766;6.884;2023-04-03T02:02:06;8.00;;;2.70;;
53044;SDS011;38930;52.766;6.884;2023-04-03T02:04:32;6.35;;;2.65;;
53044;SDS011;38930;52.766;6.884;2023-04-03T02:06:57;3.83;;;2.70;;
53044;SDS011;38930;52.766;6.884;2023-04-03T02:09:23;6.25;;;2.40;;
53044;SDS011;38930;52.766;6.884;2023-04-03T02:11:49;6.25;;;2.70;;
53044;SDS011;38930;52.766;6.884;2023-04-03T02:14:15;5.50;;;2.60;;
53044;SDS011;38930;52.766;6.884;2023-04-03T02:16:40;4.65;;;2.47;;
53044;SDS011;38930;52.766;6.884;2023-04-03T02:19:06;5.22;;;2.60;;
53044;SDS011;38930;52.766;6.884;2023-04-03T02:21:32;5.70;;;2.58;;
53044;SDS011;38930;52.766;6.884;2023-04-03T02:23:57;6.53;;;2.40;;
53044;SDS011;38930;52.766;6.884;2023-04-03T02:26:23;5.28;;;2.90;;
53044;SDS011;38930;52.766;6.884;2023-04-03T02:28:49;5.57;;;2.92;;
53044;SDS011;38930;52.766;6.884;2023-04-03T02:31:15;7.10;;;3.33;;
53044;SDS011;38930;52.766;6.884;2023-04-03T02:33:41;9.10;;;3.17;;
53044;SDS011;38930;52.766;6.884;2023-04-03T02:36:06;5.30;;;2.50;;
53044;SDS011;38930;52.766;6.884;2023-04-03T02:38:33;6.57;;;3.10;;
53044;SDS011;38930;52.766;6.884;2023-04-03T02:43:30;5.90;;;3.05;;
53044;SDS011;38930;52.766;6.884;2023-04-03T02:45:55;6.70;;;3.00;;
53044;SDS011;38930;52.766;6.884;2023-04-03T02:48:21;6.25;;;2.95;;
53044;SDS011;38930;52.766;6.884;2023-04-03T02:50:47;8.48;;;3.33;;
53044;SDS011;38930;52.766;6.884;2023-04-03T02:53:13;6.95;;;3.33;;
53044;SDS011;38930;52.766;6.884;2023-04-03T02:55:40;7.97;;;3.28;;
53044;SDS011;38930;52.766;6.884;2023-04-03T02:58:06;10.93;;;3.33;;
53044;SDS011;38930;52.766;6.884;2023-04-03T03:00:31;7.10;;;3.25;;
53044;SDS011;38930;52.766;6.884;2023-04-03T03:02:57;4.15;;;2.80;;
53044;SDS011;38930;52.766;6.884;2023-04-03T03:05:22;6.32;;;3.35;;
53044;SDS011;38930;52.766;6.884;2023-04-03T03:07:48;8.20;;;3.17;;
53044;SDS011;38930;52.766;6.884;2023-04-03T03:10:14;7.32;;;3.22;;
53044;SDS011;38930;52.766;6.884;2023-04-03T03:12:39;6.78;;;4.10;;
53044;SDS011;38930;52.766;6.884;2023-04-03T03:15:06;6.03;;;3.13;;
53044;SDS011;38930;52.766;6.884;2023-04-03T03:17:32;6.22;;;3.53;;
53044;SDS011;38930;52.766;6.884;2023-04-03T03:19:58;7.45;;;2.70;;
53044;SDS011;38930;52.766;6.884;2023-04-03T03:22:25;6.95;;;3.33;;
53044;SDS011;38930;52.766;6.884;2023-04-03T03:24:51;5.82;;;3.20;;
53044;SDS011;38930;52.766;6.884;2023-04-03T03:27:17;8.10;;;3.22;;
53044;SDS011;38930;52.766;6.884;2023-04-03T03:29:42;9.05;;;3.08;;
53044;SDS011;38930;52.766;6.884;2023-04-03T03:32:08;8.00;;;3.25;;
53044;SDS011;38930;52.766;6.884;2023-04-03T03:34:33;6.68;;;3.05;;
53044;SDS011;38930;52.766;6.884;2023-04-03T03:36:59;11.32;;;3.10;;
53044;SDS011;38930;52.766;6.884;2023-04-03T03:39:25;3.40;;;2.65;;
53044;SDS011;38930;52.766;6.884;2023-04-03T03:41:51;4.50;;;2.70;;
53044;SDS011;38930;52.766;6.884;2023-04-03T03:46:44;7.05;;;2.90;;
53044;SDS011;38930;52.766;6.884;2023-04-03T03:49:10;5.88;;;2.42;;
53044;SDS011;38930;52.766;6.884;2023-04-03T03:51:36;9.68;;;3.38;;
53044;SDS011;38930;52.766;6.884;2023-04-03T03:54:03;4.53;;;2.55;;
53044;SDS011;38930;52.766;6.884;2023-04-03T03:58:55;9.25;;;2.83;;
53044;SDS011;38930;52.766;6.884;2023-04-03T04:01:21;5.10;;;2.47;;
53044;SDS011;38930;52.766;6.884;2023-04-03T04:03:50;6.65;;;2.53;;
53044;SDS011;38930;52.766;6.884;2023-04-03T04:06:16;7.32;;;2.50;;
53044;SDS011;38930;52.766;6.884;2023-04-03T04:08:41;5.35;;;2.58;;
53044;SDS011;38930;52.766;6.884;2023-04-03T04:11:08;2.92;;;2.20;;
53044;SDS011;38930;52.766;6.884;2023-04-03T04:13:34;9.03;;;3.27;;
53044;SDS011;38930;52.766;6.884;2023-04-03T04:16:00;8.90;;;2.70;;
53044;SDS011;38930;52.766;6.884;2023-04-03T04:18:25;6.65;;;2.70;;
53044;SDS011;38930;52.766;6.884;2023-04-03T04:20:51;9.55;;;2.75;;
53044;SDS011;38930;52.766;6.884;2023-04-03T04:23:17;5.97;;;2.63;;
53044;SDS011;38930;52.766;6.884;2023-04-03T04:25:44;5.18;;;2.55;;
53044;SDS011;38930;52.766;6.884;2023-04-03T04:28:11;7.55;;;3.33;;
53044;SDS011;38930;52.766;6.884;2023-04-03T04:30:37;11.88;;;2.90;;
53044;SDS011;38930;52.766;6.884;2023-04-03T04:33:02;4.22;;;2.70;;
53044;SDS011;38930;52.766;6.884;2023-04-03T04:35:28;5.40;;;2.40;;
53044;SDS011;38930;52.766;6.884;2023-04-03T04:37:54;6.95;;;2.80;;
53044;SDS011;38930;52.766;6.884;2023-04-03T04:40:20;7.25;;;2.90;;
53044;SDS011;38930;52.766;6.884;2023-04-03T04:42:45;8.20;;;2.67;;
53044;SDS011;38930;52.766;6.884;2023-04-03T04:45:11;8.50;;;3.15;;
53044;SDS011;38930;52.766;6.884;2023-04-03T04:47:37;5.88;;;2.78;;
53044;SDS011;38930;52.766;6.884;2023-04-03T04:50:03;8.93;;;3.35;;
53044;SDS011;38930;52.766;6.884;2023-04-03T04:52:29;4.47;;;2.70;;
53044;SDS011;38930;52.766;6.884;2023-04-03T04:54:54;6.72;;;2.75;;
53044;SDS011;38930;52.766;6.884;2023-04-03T04:57:20;4.78;;;2.70;;
53044;SDS011;38930;52.766;6.884;2023-04-03T04:59:46;11.35;;;3.17;;
53044;SDS011;38930;52.766;6.884;2023-04-03T05:02:12;6.97;;;2.78;;
53044;SDS011;38930;52.766;6.884;2023-04-03T05:04:37;5.25;;;2.50;;
53044;SDS011;38930;52.766;6.884;2023-04-03T05:07:03;3.85;;;2.42;;
53044;SDS011;38930;52.766;6.884;2023-04-03T05:09:28;5.05;;;2.85;;
53044;SDS011;38930;52.766;6.884;2023-04-03T05:11:54;4.85;;;2.50;;
53044;SDS011;38930;52.766;6.884;2023-04-03T05:14:21;7.57;;;2.75;;
53044;SDS011;38930;52.766;6.884;2023-04-03T05:16:46;6.28;;;2.78;;
53044;SDS011;38930;52.766;6.884;2023-04-03T05:19:12;7.22;;;2.72;;
53044;SDS011;38930;52.766;6.884;2023-04-03T05:21:38;5.50;;;2.50;;
53044;SDS011;38930;52.766;6.884;2023-04-03T05:24:04;6.93;;;2.65;;
53044;SDS011;38930;52.766;6.884;2023-04-03T05:26:30;4.85;;;2.20;;
53044;SDS011;38930;52.766;6.884;2023-04-03T05:28:56;4.97;;;2.25;;
53044;SDS011;38930;52.766;6.884;2023-04-03T05:31:22;7.33;;;2.77;;
53044;SDS011;38930;52.766;6.884;2023-04-03T05:33:48;4.55;;;3.13;;
53044;SDS011;38930;52.766;6.884;2023-04-03T05:36:14;3.60;;;2.85;;
53044;SDS011;38930;52.766;6.884;2023-04-03T05:38:40;6.32;;;2.70;;
53044;SDS011;38930;52.766;6.884;2023-04-03T05:41:06;3.95;;;2.83;;
53044;SDS011;38930;52.766;6.884;2023-04-03T05:43:31;8.80;;;2.92;;
53044;SDS011;38930;52.766;6.884;2023-04-03T05:45:58;8.77;;;2.92;;
53044;SDS011;38930;52.766;6.884;2023-04-03T05:48:24;4.97;;;2.67;;
53044;SDS011;38930;52.766;6.884;2023-04-03T05:50:50;10.63;;;3.08;;
53044;SDS011;38930;52.766;6.884;2023-04-03T05:53:25;9.68;;;3.70;;
53044;SDS011;38930;52.766;6.884;2023-04-03T05:55:54;9.05;;;3.58;;
53044;SDS011;38930;52.766;6.884;2023-04-03T05:58:20;6.20;;;3.00;;
53044;SDS011;38930;52.766;6.884;2023-04-03T06:00:45;3.83;;;2.60;;
53044;SDS011;38930;52.766;6.884;2023-04-03T06:03:11;12.00;;;3.70;;
53044;SDS011;38930;52.766;6.884;2023-04-03T06:05:36;5.38;;;3.45;;
53044;SDS011;38930;52.766;6.884;2023-04-03T06:08:02;5.30;;;2.63;;
53044;SDS011;38930;52.766;6.884;2023-04-03T06:10:28;6.80;;;2.40;;
53044;SDS011;38930;52.766;6.884;2023-04-03T06:12:54;4.30;;;2.70;;
53044;SDS011;38930;52.766;6.884;2023-04-03T06:15:19;5.80;;;2.80;;
53044;SDS011;38930;52.766;6.884;2023-04-03T06:17:46;5.20;;;2.97;;
53044;SDS011;38930;52.766;6.884;2023-04-03T06:20:11;6.03;;;2.78;;
53044;SDS011;38930;52.766;6.884;2023-04-03T06:22:38;6.13;;;2.38;;
53044;SDS011;38930;52.766;6.884;2023-04-03T06:25:03;5.88;;;2.28;;
53044;SDS011;38930;52.766;6.884;2023-04-03T06:27:30;8.20;;;2.60;;
53044;SDS011;38930;52.766;6.884;2023-04-03T06:29:55;5.25;;;2.92;;
53044;SDS011;38930;52.766;6.884;2023-04-03T06:32:21;3.72;;;2.35;;
53044;SDS011;38930;52.766;6.884;2023-04-03T06:34:46;4.93;;;2.33;;
53044;SDS011;38930;52.766;6.884;2023-04-03T06:37:16;5.63;;;2.42;;
53044;SDS011;38930;52.766;6.884;2023-04-03T06:39:43;6.40;;;2.30;;
53044;SDS011;38930;52.766;6.884;2023-04-03T06:42:10;4.32;;;2.05;;
53044;SDS011;38930;52.766;6.884;2023-04-03T06:44:36;5.22;;;2.30;;
53044;SDS011;38930;52.766;6.884;2023-04-03T06:47:01;3.67;;;2.28;;
53044;SDS011;38930;52.766;6.884;2023-04-03T06:49:28;6.05;;;2.33;;
53044;SDS011;38930;52.766;6.884;2023-04-03T06:51:54;6.53;;;2.40;;
53044;SDS011;38930;52.766;6.884;2023-04-03T06:56:46;6.68;;;2.15;;
53044;SDS011;38930;52.766;6.884;2023-04-03T06:59:12;7.85;;;3.00;;
53044;SDS011;38930;52.766;6.884;2023-04-03T07:01:39;8.02;;;2.35;;
53044;SDS011;38930;52.766;6.884;2023-04-03T07:04:05;5.57;;;2.10;;
53044;SDS011;38930;52.766;6.884;2023-04-03T07:06:32;3.80;;;1.85;;
53044;SDS011;38930;52.766;6.884;2023-04-03T07:08:59;5.77;;;2.37;;
53044;SDS011;38930;52.766;6.884;2023-04-03T07:11:25;8.20;;;2.80;;
53044;SDS011;38930;52.766;6.884;2023-04-03T07:13:51;6.03;;;2.03;;
53044;SDS011;38930;52.766;6.884;2023-04-03T07:16:17;5.90;;;2.20;;
53044;SDS011;38930;52.766;6.884;2023-04-03T07:18:43;5.57;;;2.17;;
53044;SDS011;38930;52.766;6.884;2023-04-03T07:21:09;6.07;;;2.20;;
53044;SDS011;38930;52.766;6.884;2023-04-03T07:23:35;6.00;;;2.72;;
53044;SDS011;38930;52.766;6.884;2023-04-03T07:26:01;7.43;;;2.08;;
53044;SDS011;38930;52.766;6.884;2023-04-03T07:28:27;7.50;;;2.05;;
53044;SDS011;38930;52.766;6.884;2023-04-03T07:30:53;8.13;;;2.20;;
53044;SDS011;38930;52.766;6.884;2023-04-03T07:33:24;3.75;;;2.00;;
53044;SDS011;38930;52.766;6.884;2023-04-03T07:35:50;3.65;;;1.80;;
53044;SDS011;38930;52.766;6.884;2023-04-03T07:38:16;4.40;;;2.17;;
53044;SDS011;38930;52.766;6.884;2023-04-03T07:40:45;4.75;;;2.10;;
53044;SDS011;38930;52.766;6.884;2023-04-03T07:43:12;9.18;;;2.22;;
53044;SDS011;38930;52.766;6.884;2023-04-03T07:45:38;4.15;;;2.17;;
53044;SDS011;38930;52.766;6.884;2023-04-03T07:48:03;3.70;;;2.65;;
53044;SDS011;38930;52.766;6.884;2023-04-03T07:50:29;4.85;;;2.20;;
53044;SDS011;38930;52.766;6.884;2023-04-03T07:52:56;3.45;;;1.70;;
53044;SDS011;38930;52.766;6.884;2023-04-03T07:55:22;3.67;;;2.03;;
53044;SDS011;38930;52.766;6.884;2023-04-03T07:57:49;4.63;;;1.90;;
53044;SDS011;38930;52.766;6.884;2023-04-03T08:00:15;8.05;;;1.70;;
53044;SDS011;38930;52.766;6.884;2023-04-03T08:02:42;3.72;;;1.83;;
53044;SDS011;38930;52.766;6.884;2023-04-03T08:07:36;4.85;;;1.70;;
53044;SDS011;38930;52.766;6.884;2023-04-03T08:10:02;2.92;;;1.50;;
53044;SDS011;38930;52.766;6.884;2023-04-03T08:12:28;4.38;;;1.60;;
53044;SDS011;38930;52.766;6.884;2023-04-03T08:14:55;2.40;;;1.60;;
53044;SDS011;38930;52.766;6.884;2023-04-03T08:17:20;9.52;;;2.00;;
53044;SDS011;38930;52.766;6.884;2023-04-03T08:19:46;3.42;;;1.67;;
53044;SDS011;38930;52.766;6.884;2023-04-03T08:22:12;3.33;;;1.98;;
53044;SDS011;38930;52.766;6.884;2023-04-03T08:24:37;4.05;;;1.80;;
53044;SDS011;38930;52.766;6.884;2023-04-03T08:27:03;8.15;;;1.88;;
53044;SDS011;38930;52.766;6.884;2023-04-03T08:29:29;3.53;;;1.73;;
53044;SDS011;38930;52.766;6.884;2023-04-03T08:31:55;2.40;;;1.52;;
53044;SDS011;38930;52.766;6.884;2023-04-03T08:34:20;2.50;;;1.60;;
53044;SDS011;38930;52.766;6.884;2023-04-03T08:36:46;3.08;;;1.60;;
53044;SDS011;38930;52.766;6.884;2023-04-03T08:39:12;4.50;;;1.80;;
53044;SDS011;38930;52.766;6.884;2023-04-03T08:41:39;4.50;;;1.50;;
53044;SDS011;38930;52.766;6.884;2023-04-03T08:51:56;5.47;;;1.58;;
53044;SDS011;38930;52.766;6.884;2023-04-03T08:54:28;3.72;;;1.70;;
53044;SDS011;38930;52.766;6.884;2023-04-03T08:56:57;5.47;;;1.50;;
53044;SDS011;38930;52.766;6.884;2023-04-03T08:59:28;3.47;;;1.58;;
53044;SDS011;38930;52.766;6.884;2023-04-03T09:01:57;4.25;;;1.73;;
53044;SDS011;38930;52.766;6.884;2023-04-03T09:04:27;2.08;;;1.38;;
53044;SDS011;38930;52.766;6.884;2023-04-03T09:06:58;3.38;;;1.75;;
53044;SDS011;38930;52.766;6.884;2023-04-03T09:09:35;2.65;;;1.60;;
53044;SDS011;38930;52.766;6.884;2023-04-03T09:17:41;4.68;;;1.50;;
53044;SDS011;38930;52.766;6.884;2023-04-03T09:20:32;3.50;;;1.90;;
53044;SDS011;38930;52.766;6.884;2023-04-03T09:23:09;3.58;;;1.52;;
53044;SDS011;38930;52.766;6.884;2023-04-03T09:25:53;4.15;;;1.50;;
53044;SDS011;38930;52.766;6.884;2023-04-03T09:28:25;4.97;;;1.67;;
53044;SDS011;38930;52.766;6.884;2023-04-03T09:30:51;3.33;;;1.85;;
53044;SDS011;38930;52.766;6.884;2023-04-03T09:33:16;2.42;;;1.23;;
53044;SDS011;38930;52.766;6.884;2023-04-03T09:35:43;3.20;;;1.23;;
53044;SDS011;38930;52.766;6.884;2023-04-03T09:40:37;5.40;;;1.30;;
53044;SDS011;38930;52.766;6.884;2023-04-03T09:45:43;3.75;;;1.20;;
53044;SDS011;38930;52.766;6.884;2023-04-03T09:56:01;2.35;;;1.25;;
53044;SDS011;38930;52.766;6.884;2023-04-03T09:58:29;4.43;;;1.50;;
53044;SDS011;38930;52.766;6.884;2023-04-03T10:01:02;3.85;;;1.30;;
53044;SDS011;38930;52.766;6.884;2023-04-03T10:03:30;2.73;;;1.20;;
53044;SDS011;38930;52.766;6.884;2023-04-03T10:05:57;2.97;;;1.27;;
53044;SDS011;38930;52.766;6.884;2023-04-03T10:08:28;2.72;;;1.10;;
53044;SDS011;38930;52.766;6.884;2023-04-03T10:13:35;3.47;;;1.33;;
53044;SDS011;38930;52.766;6.884;2023-04-03T10:16:14;2.30;;;1.30;;
53044;SDS011;38930;52.766;6.884;2023-04-03T10:18:57;3.30;;;1.58;;
53044;SDS011;38930;52.766;6.884;2023-04-03T10:24:21;2.40;;;1.40;;
53044;SDS011;38930;52.766;6.884;2023-04-03T10:27:09;3.90;;;1.60;;
53044;SDS011;38930;52.766;6.884;2023-04-03T10:30:09;1.88;;;1.00;;
53044;SDS011;38930;52.766;6.884;2023-04-03T10:35:39;1.67;;;1.25;;
53044;SDS011;38930;52.766;6.884;2023-04-03T10:40:49;6.05;;;1.30;;
53044;SDS011;38930;52.766;6.884;2023-04-03T10:44:04;3.70;;;1.17;;
53044;SDS011;38930;52.766;6.884;2023-04-03T10:49:05;2.92;;;1.10;;
53044;SDS011;38930;52.766;6.884;2023-04-03T10:57:32;3.85;;;1.20;;
53044;SDS011;38930;52.766;6.884;2023-04-03T11:00:03;3.00;;;1.25;;
53044;SDS011;38930;52.766;6.884;2023-04-03T11:02:53;2.97;;;1.30;;
53044;SDS011;38930;52.766;6.884;2023-04-03T11:05:25;1.35;;;1.08;;
53044;SDS011;38930;52.766;6.884;2023-04-03T11:08:01;3.70;;;1.23;;
53044;SDS011;38930;52.766;6.884;2023-04-03T11:16:08;1.80;;;1.20;;
53044;SDS011;38930;52.766;6.884;2023-04-03T11:18:39;4.72;;;1.30;;
53044;SDS011;38930;52.766;6.884;2023-04-03T11:21:19;4.20;;;1.30;;
53044;SDS011;38930;52.766;6.884;2023-04-03T11:23:49;2.80;;;1.20;;
53044;SDS011;38930;52.766;6.884;2023-04-03T11:26:21;2.17;;;1.30;;
53044;SDS011;38930;52.766;6.884;2023-04-03T11:28:56;2.25;;;1.30;;
53044;SDS011;38930;52.766;6.884;2023-04-03T11:34:49;3.10;;;1.40;;
53044;SDS011;38930;52.766;6.884;2023-04-03T11:37:30;2.15;;;1.20;;
53044;SDS011;38930;52.766;6.884;2023-04-03T11:42:47;3.08;;;1.30;;
53044;SDS011;38930;52.766;6.884;2023-04-03T11:47:56;3.35;;;1.40;;
53044;SDS011;38930;52.766;6.884;2023-04-03T12:16:26;2.25;;;1.10;;
53044;SDS011;38930;52.766;6.884;2023-04-03T12:32:06;3.28;;;1.40;;
53044;SDS011;38930;52.766;6.884;2023-04-03T12:34:45;4.57;;;1.55;;
53044;SDS011;38930;52.766;6.884;2023-04-03T12:40:38;3.42;;;1.50;;
53044;SDS011;38930;52.766;6.884;2023-04-03T12:45:56;2.72;;;1.48;;
53044;SDS011;38930;52.766;6.884;2023-04-03T12:48:28;2.78;;;1.40;;
53044;SDS011;38930;52.766;6.884;2023-04-03T12:50:57;4.57;;;1.20;;
53044;SDS011;38930;52.766;6.884;2023-04-03T12:53:28;1.85;;;1.27;;
53044;SDS011;38930;52.766;6.884;2023-04-03T12:56:18;3.08;;;1.45;;
53044;SDS011;38930;52.766;6.884;2023-04-03T12:58:43;2.97;;;1.40;;
53044;SDS011;38930;52.766;6.884;2023-04-03T13:01:10;4.63;;;1.23;;
53044;SDS011;38930;52.766;6.884;2023-04-03T13:03:40;2.65;;;1.13;;
53044;SDS011;38930;52.766;6.884;2023-04-03T13:06:19;2.33;;;1.40;;
53044;SDS011;38930;52.766;6.884;2023-04-03T13:08:49;2.45;;;1.33;;
53044;SDS011;38930;52.766;6.884;2023-04-03T13:11:16;3.58;;;1.20;;
53044;SDS011;38930;52.766;6.884;2023-04-03T13:13:57;4.40;;;1.38;;
53044;SDS011;38930;52.766;6.884;2023-04-03T13:16:53;4.65;;;1.33;;
53044;SDS011;38930;52.766;6.884;2023-04-03T13:19:22;2.78;;;1.55;;
53044;SDS011;38930;52.766;6.884;2023-04-03T13:21:49;4.60;;;1.60;;
53044;SDS011;38930;52.766;6.884;2023-04-03T13:24:30;2.55;;;1.40;;
53044;SDS011;38930;52.766;6.884;2023-04-03T13:27:00;4.53;;;1.13;;
53044;SDS011;38930;52.766;6.884;2023-04-03T13:29:30;2.67;;;1.30;;
53044;SDS011;38930;52.766;6.884;2023-04-03T13:31:59;3.95;;;1.30;;
53044;SDS011;38930;52.766;6.884;2023-04-03T13:34:34;3.65;;;1.30;;
53044;SDS011;38930;52.766;6.884;2023-04-03T13:37:06;4.13;;;1.45;;
53044;SDS011;38930;52.766;6.884;2023-04-03T13:42:01;2.53;;;1.17;;
53044;SDS011;38930;52.766;6.884;2023-04-03T13:44:41;2.30;;;1.50;;
53044;SDS011;38930;52.766;6.884;2023-04-03T13:49:44;5.10;;;1.73;;
53044;SDS011;38930;52.766;6.884;2023-04-03T13:52:33;5.45;;;1.92;;
53044;SDS011;38930;52.766;6.884;2023-04-03T14:00:34;2.78;;;1.40;;
53044;SDS011;38930;52.766;6.884;2023-04-03T14:03:02;3.25;;;1.45;;
53044;SDS011;38930;52.766;6.884;2023-04-03T14:05:37;6.47;;;1.70;;
53044;SDS011;38930;52.766;6.884;2023-04-03T14:08:03;3.47;;;1.50;;
53044;SDS011;38930;52.766;6.884;2023-04-03T14:10:29;2.83;;;1.55;;
53044;SDS011;38930;52.766;6.884;2023-04-03T14:12:55;4.38;;;1.55;;
53044;SDS011;38930;52.766;6.884;2023-04-03T14:15:26;2.65;;;1.40;;
53044;SDS011;38930;52.766;6.884;2023-04-03T14:17:53;2.67;;;1.30;;
53044;SDS011;38930;52.766;6.884;2023-04-03T14:20:22;2.70;;;1.50;;
53044;SDS011;38930;52.766;6.884;2023-04-03T14:22:50;2.47;;;1.52;;
53044;SDS011;38930;52.766;6.884;2023-04-03T14:25:16;3.83;;;1.40;;
53044;SDS011;38930;52.766;6.884;2023-04-03T14:27:43;4.53;;;1.77;;
53044;SDS011;38930;52.766;6.884;2023-04-03T14:32:42;2.47;;;1.35;;
53044;SDS011;38930;52.766;6.884;2023-04-03T14:35:07;2.42;;;1.30;;
53044;SDS011;38930;52.766;6.884;2023-04-03T14:37:33;3.53;;;1.65;;
53044;SDS011;38930;52.766;6.884;2023-04-03T14:40:00;2.00;;;1.20;;
53044;SDS011;38930;52.766;6.884;2023-04-03T14:42:33;4.53;;;1.30;;
53044;SDS011;38930;52.766;6.884;2023-04-03T14:45:08;2.33;;;1.17;;
53044;SDS011;38930;52.766;6.884;2023-04-03T14:47:40;8.27;;;1.73;;
53044;SDS011;38930;52.766;6.884;2023-04-03T14:50:12;3.05;;;1.48;;
53044;SDS011;38930;52.766;6.884;2023-04-03T14:52:42;3.60;;;1.20;;
53044;SDS011;38930;52.766;6.884;2023-04-03T14:55:08;3.60;;;1.88;;
53044;SDS011;38930;52.766;6.884;2023-04-03T14:57:34;2.78;;;1.52;;
53044;SDS011;38930;52.766;6.884;2023-04-03T15:00:02;3.72;;;1.63;;
53044;SDS011;38930;52.766;6.884;2023-04-03T15:02:33;3.03;;;1.30;;
53044;SDS011;38930;52.766;6.884;2023-04-03T15:05:00;2.50;;;1.58;;
53044;SDS011;38930;52.766;6.884;2023-04-03T15:07:29;4.30;;;1.60;;
53044;SDS011;38930;52.766;6.884;2023-04-03T15:09:58;2.47;;;1.30;;
53044;SDS011;38930;52.766;6.884;2023-04-03T15:12:31;3.55;;;1.40;;
53044;SDS011;38930;52.766;6.884;2023-04-03T15:14:57;2.25;;;1.40;;
53044;SDS011;38930;52.766;6.884;2023-04-03T15:17:23;4.43;;;1.67;;
53044;SDS011;38930;52.766;6.884;2023-04-03T15:19:48;4.87;;;1.60;;
53044;SDS011;38930;52.766;6.884;2023-04-03T15:22:18;3.83;;;1.63;;
53044;SDS011;38930;52.766;6.884;2023-04-03T15:24:45;4.20;;;1.88;;
53044;SDS011;38930;52.766;6.884;2023-04-03T15:27:11;3.40;;;1.73;;
53044;SDS011;38930;52.766;6.884;2023-04-03T15:32:04;3.38;;;1.50;;
53044;SDS011;38930;52.766;6.884;2023-04-03T15:34:31;3.03;;;1.67;;
53044;SDS011;38930;52.766;6.884;2023-04-03T15:36:57;2.65;;;1.60;;
53044;SDS011;38930;52.766;6.884;2023-04-03T15:39:24;3.25;;;1.33;;
53044;SDS011;38930;52.766;6.884;2023-04-03T15:41:51;3.60;;;1.40;;
53044;SDS011;38930;52.766;6.884;2023-04-03T15:44:17;3.70;;;2.08;;
53044;SDS011;38930;52.766;6.884;2023-04-03T15:46:44;4.95;;;1.60;;
53044;SDS011;38930;52.766;6.884;2023-04-03T15:49:11;3.53;;;1.50;;
53044;SDS011;38930;52.766;6.884;2023-04-03T15:51:37;2.77;;;1.53;;
53044;SDS011;38930;52.766;6.884;2023-04-03T15:54:03;2.78;;;2.17;;
53044;SDS011;38930;52.766;6.884;2023-04-03T15:56:28;3.35;;;1.48;;
53044;SDS011;38930;52.766;6.884;2023-04-03T15:58:54;2.40;;;1.50;;
53044;SDS011;38930;52.766;6.884;2023-04-03T16:01:20;2.92;;;1.70;;
53044;SDS011;38930;52.766;6.884;2023-04-03T16:03:45;3.20;;;1.85;;
53044;SDS011;38930;52.766;6.884;2023-04-03T16:06:18;6.13;;;2.40;;
53044;SDS011;38930;52.766;6.884;2023-04-03T16:08:44;1.98;;;1.40;;
53044;SDS011;38930;52.766;6.884;2023-04-03T16:11:12;3.88;;;1.50;;
53044;SDS011;38930;52.766;6.884;2023-04-03T16:13:38;3.60;;;1.73;;
53044;SDS011;38930;52.766;6.884;2023-04-03T16:16:04;2.15;;;1.52;;
53044;SDS011;38930;52.766;6.884;2023-04-03T16:18:30;2.00;;;1.70;;
53044;SDS011;38930;52.766;6.884;2023-04-03T16:20:56;2.30;;;1.70;;
53044;SDS011;38930;52.766;6.884;2023-04-03T16:23:22;3.57;;;1.63;;
53044;SDS011;38930;52.766;6.884;2023-04-03T16:25:48;5.18;;;1.73;;
53044;SDS011;38930;52.766;6.884;2023-04-03T16:28:15;2.78;;;1.77;;
53044;SDS011;38930;52.766;6.884;2023-04-03T16:30:42;4.07;;;1.80;;
53044;SDS011;38930;52.766;6.884;2023-04-03T16:33:10;3.38;;;1.58;;
53044;SDS011;38930;52.766;6.884;2023-04-03T16:35:36;2.95;;;1.80;;
53044;SDS011;38930;52.766;6.884;2023-04-03T16:38:02;2.58;;;1.40;;
53044;SDS011;38930;52.766;6.884;2023-04-03T16:40:28;3.95;;;1.40;;
53044;SDS011;38930;52.766;6.884;2023-04-03T16:42:54;3.35;;;1.70;;
53044;SDS011;38930;52.766;6.884;2023-04-03T16:45:19;4.35;;;1.50;;
53044;SDS011;38930;52.766;6.884;2023-04-03T16:47:45;3.33;;;1.65;;
53044;SDS011;38930;52.766;6.884;2023-04-03T16:50:11;3.63;;;1.70;;
53044;SDS011;38930;52.766;6.884;2023-04-03T16:52:36;3.50;;;1.40;;
53044;SDS011;38930;52.766;6.884;2023-04-03T16:55:02;3.53;;;1.60;;
53044;SDS011;38930;52.766;6.884;2023-04-03T16:57:28;4.05;;;1.90;;
53044;SDS011;38930;52.766;6.884;2023-04-03T16:59:54;2.78;;;1.23;;
53044;SDS011;38930;52.766;6.884;2023-04-03T17:02:20;2.17;;;1.27;;
53044;SDS011;38930;52.766;6.884;2023-04-03T17:04:49;1.83;;;1.30;;
53044;SDS011;38930;52.766;6.884;2023-04-03T17:07:16;2.75;;;1.40;;
53044;SDS011;38930;52.766;6.884;2023-04-03T17:12:08;2.55;;;1.50;;
53044;SDS011;38930;52.766;6.884;2023-04-03T17:14:34;3.45;;;1.70;;
53044;SDS011;38930;52.766;6.884;2023-04-03T17:17:00;4.07;;;1.77;;